sensor_id;sensor_type;location;lat;lon;timestamp;pressure;altitude;pressure_sealevel;temperature;humidity
22257;BME280;11297;42.686;23.374;2022-07-23T00:01:28;95261.47;;;27.04;41.19
22257;BME280;11297;42.686;23.374;2022-07-23T00:03:54;95245.19;;;26.95;42.06
22257;BME280;11297;42.686;23.374;2022-07-23T00:06:20;95259.38;;;26.82;41.97
22257;BME280;11297;42.686;23.374;2022-07-23T00:08:46;95257.59;;;26.68;41.81
22257;BME280;11297;42.686;23.374;2022-07-23T00:11:11;95267.56;;;26.61;42.61
22257;BME280;11297;42.686;23.374;2022-07-23T00:13:37;95269.78;;;26.69;41.68
22257;BME280;11297;42.686;23.374;2022-07-23T00:16:02;95269.38;;;26.74;42.17
22257;BME280;11297;42.686;23.374;2022-07-23T00:18:28;95270.09;;;26.78;41.76
22257;BME280;11297;42.686;23.374;2022-07-23T00:20:53;95264.69;;;26.85;40.77
22257;BME280;11297;42.686;23.374;2022-07-23T00:23:19;95267.00;;;26.83;41.12
22257;BME280;11297;42.686;23.374;2022-07-23T00:25:45;95276.53;;;26.84;41.25
22257;BME280;11297;42.686;23.374;2022-07-23T00:28:10;95275.94;;;26.63;41.62
22257;BME280;11297;42.686;23.374;2022-07-23T00:30:36;95273.78;;;26.48;42.04
22257;BME280;11297;42.686;23.374;2022-07-23T00:33:04;95271.06;;;26.54;42.12
22257;BME280;11297;42.686;23.374;2022-07-23T00:35:33;95274.88;;;26.53;42.11
22257;BME280;11297;42.686;23.374;2022-07-23T00:38:00;95280.25;;;26.47;42.68
22257;BME280;11297;42.686;23.374;2022-07-23T00:40:26;95277.63;;;26.43;42.70
22257;BME280;11297;42.686;23.374;2022-07-23T00:42:52;95274.25;;;26.36;42.69
22257;BME280;11297;42.686;23.374;2022-07-23T00:45:17;95272.41;;;26.29;43.00
22257;BME280;11297;42.686;23.374;2022-07-23T00:47:43;95271.28;;;26.23;43.08
22257;BME280;11297;42.686;23.374;2022-07-23T00:50:09;95265.34;;;25.98;43.46
22257;BME280;11297;42.686;23.374;2022-07-23T00:52:36;95270.34;;;25.86;43.81
22257;BME280;11297;42.686;23.374;2022-07-23T00:55:03;95274.53;;;25.87;43.61
22257;BME280;11297;42.686;23.374;2022-07-23T00:57:29;95275.38;;;25.70;44.34
22257;BME280;11297;42.686;23.374;2022-07-23T00:59:55;95275.81;;;25.48;44.67
22257;BME280;11297;42.686;23.374;2022-07-23T01:02:21;95275.50;;;25.36;44.57
22257;BME280;11297;42.686;23.374;2022-07-23T01:04:47;95265.31;;;24.93;45.46
22257;BME280;11297;42.686;23.374;2022-07-23T01:07:12;95275.22;;;24.68;46.36
22257;BME280;11297;42.686;23.374;2022-07-23T01:09:38;95272.19;;;24.49;46.84
22257;BME280;11297;42.686;23.374;2022-07-23T01:12:04;95261.53;;;24.10;47.25
22257;BME280;11297;42.686;23.374;2022-07-23T01:14:30;95270.97;;;23.91;48.10
22257;BME280;11297;42.686;23.374;2022-07-23T01:16:55;95265.63;;;23.77;48.39
22257;BME280;11297;42.686;23.374;2022-07-23T01:19:21;95271.59;;;23.53;49.49
22257;BME280;11297;42.686;23.374;2022-07-23T01:21:48;95251.03;;;23.29;50.03
22257;BME280;11297;42.686;23.374;2022-07-23T01:24:14;95268.84;;;23.29;50.04
22257;BME280;11297;42.686;23.374;2022-07-23T01:26:44;95266.88;;;23.19;50.01
22257;BME280;11297;42.686;23.374;2022-07-23T01:29:10;95266.47;;;23.10;50.39
22257;BME280;11297;42.686;23.374;2022-07-23T01:31:36;95269.50;;;23.12;50.26
22257;BME280;11297;42.686;23.374;2022-07-23T01:34:02;95266.84;;;23.12;50.20
22257;BME280;11297;42.686;23.374;2022-07-23T01:36:27;95260.78;;;23.11;50.29
22257;BME280;11297;42.686;23.374;2022-07-23T01:38:53;95264.25;;;23.19;50.23
22257;BME280;11297;42.686;23.374;2022-07-23T01:41:18;95261.25;;;23.31;49.58
22257;BME280;11297;42.686;23.374;2022-07-23T01:43:44;95255.97;;;23.34;49.36
22257;BME280;11297;42.686;23.374;2022-07-23T01:46:09;95257.56;;;23.56;49.36
22257;BME280;11297;42.686;23.374;2022-07-23T01:48:35;95270.19;;;23.80;48.70
22257;BME280;11297;42.686;23.374;2022-07-23T01:51:01;95267.19;;;24.05;48.43
22257;BME280;11297;42.686;23.374;2022-07-23T01:53:26;95261.16;;;24.26;48.09
22257;BME280;11297;42.686;23.374;2022-07-23T01:55:51;95264.59;;;24.44;47.65
22257;BME280;11297;42.686;23.374;2022-07-23T01:58:17;95264.59;;;24.57;47.44
22257;BME280;11297;42.686;23.374;2022-07-23T02:00:42;95263.06;;;24.74;47.51
22257;BME280;11297;42.686;23.374;2022-07-23T02:03:08;95266.84;;;24.87;47.61
22257;BME280;11297;42.686;23.374;2022-07-23T02:05:33;95265.69;;;24.98;46.71
22257;BME280;11297;42.686;23.374;2022-07-23T02:07:59;95259.63;;;25.04;46.27
22257;BME280;11297;42.686;23.374;2022-07-23T02:10:26;95260.38;;;25.12;46.34
22257;BME280;11297;42.686;23.374;2022-07-23T02:12:52;95258.09;;;25.10;46.02
22257;BME280;11297;42.686;23.374;2022-07-23T02:15:17;95263.75;;;25.19;45.73
22257;BME280;11297;42.686;23.374;2022-07-23T02:17:43;95268.28;;;25.26;45.38
22257;BME280;11297;42.686;23.374;2022-07-23T02:20:10;95260.31;;;25.33;45.60
22257;BME280;11297;42.686;23.374;2022-07-23T02:22:36;95270.19;;;25.36;45.56
22257;BME280;11297;42.686;23.374;2022-07-23T02:25:03;95268.69;;;25.24;45.61
22257;BME280;11297;42.686;23.374;2022-07-23T02:27:28;95265.69;;;25.19;46.00
22257;BME280;11297;42.686;23.374;2022-07-23T02:29:54;95271.00;;;25.19;45.55
22257;BME280;11297;42.686;23.374;2022-07-23T02:32:19;95268.31;;;25.22;45.51
22257;BME280;11297;42.686;23.374;2022-07-23T02:34:47;95270.97;;;25.26;45.93
22257;BME280;11297;42.686;23.374;2022-07-23T02:37:12;95272.50;;;25.23;45.96
22257;BME280;11297;42.686;23.374;2022-07-23T02:39:38;95272.50;;;25.16;45.84
22257;BME280;11297;42.686;23.374;2022-07-23T02:42:03;95279.38;;;25.10;46.06
22257;BME280;11297;42.686;23.374;2022-07-23T02:44:29;95280.88;;;24.98;46.18
22257;BME280;11297;42.686;23.374;2022-07-23T02:46:54;95283.94;;;24.89;46.62
22257;BME280;11297;42.686;23.374;2022-07-23T02:49:20;95286.63;;;24.65;47.38
22257;BME280;11297;42.686;23.374;2022-07-23T02:51:45;95286.22;;;24.56;47.39
22257;BME280;11297;42.686;23.374;2022-07-23T02:54:11;95279.03;;;24.50;47.29
22257;BME280;11297;42.686;23.374;2022-07-23T02:56:36;95289.66;;;24.46;47.77
22257;BME280;11297;42.686;23.374;2022-07-23T02:59:02;95288.53;;;24.44;48.04
22257;BME280;11297;42.686;23.374;2022-07-23T03:01:28;95287.38;;;24.34;47.86
22257;BME280;11297;42.686;23.374;2022-07-23T03:03:53;95287.34;;;24.24;47.89
22257;BME280;11297;42.686;23.374;2022-07-23T03:06:18;95298.00;;;24.38;47.78
22257;BME280;11297;42.686;23.374;2022-07-23T03:08:44;95293.06;;;24.50;47.99
22257;BME280;11297;42.686;23.374;2022-07-23T03:11:09;95300.66;;;24.58;47.77
22257;BME280;11297;42.686;23.374;2022-07-23T03:13:39;95300.66;;;24.48;47.87
22257;BME280;11297;42.686;23.374;2022-07-23T03:16:05;95301.81;;;24.57;47.80
22257;BME280;11297;42.686;23.374;2022-07-23T03:18:30;95288.16;;;24.52;47.91
22257;BME280;11297;42.686;23.374;2022-07-23T03:20:56;95307.13;;;24.64;47.79
22257;BME280;11297;42.686;23.374;2022-07-23T03:23:21;95315.84;;;24.72;47.64
22257;BME280;11297;42.686;23.374;2022-07-23T03:25:47;95313.19;;;24.75;47.69
22257;BME280;11297;42.686;23.374;2022-07-23T03:28:14;95315.88;;;24.79;47.47
22257;BME280;11297;42.686;23.374;2022-07-23T03:30:41;95313.97;;;24.65;47.60
22257;BME280;11297;42.686;23.374;2022-07-23T03:33:07;95318.88;;;24.84;47.15
22257;BME280;11297;42.686;23.374;2022-07-23T03:35:32;95313.19;;;24.61;48.04
22257;BME280;11297;42.686;23.374;2022-07-23T03:37:58;95311.66;;;24.71;48.24
22257;BME280;11297;42.686;23.374;2022-07-23T03:40:23;95315.09;;;24.85;47.77
22257;BME280;11297;42.686;23.374;2022-07-23T03:42:49;95320.03;;;24.83;47.94
22257;BME280;11297;42.686;23.374;2022-07-23T03:45:14;95316.63;;;24.86;47.78
22257;BME280;11297;42.686;23.374;2022-07-23T03:47:40;95318.13;;;24.94;47.54
22257;BME280;11297;42.686;23.374;2022-07-23T03:50:06;95316.63;;;24.86;47.93
22257;BME280;11297;42.686;23.374;2022-07-23T03:52:31;95315.06;;;24.89;47.84
22257;BME280;11297;42.686;23.374;2022-07-23T03:54:57;95323.44;;;24.84;48.04
22257;BME280;11297;42.686;23.374;2022-07-23T03:57:22;95322.31;;;24.64;48.90
22257;BME280;11297;42.686;23.374;2022-07-23T03:59:48;95322.69;;;24.59;48.84
22257;BME280;11297;42.686;23.374;2022-07-23T04:02:14;95328.00;;;24.80;48.34
22257;BME280;11297;42.686;23.374;2022-07-23T04:04:39;95318.13;;;24.84;47.81
22257;BME280;11297;42.686;23.374;2022-07-23T04:07:05;95317.38;;;24.52;49.60
22257;BME280;11297;42.686;23.374;2022-07-23T04:09:32;95318.88;;;24.53;49.20
22257;BME280;11297;42.686;23.374;2022-07-23T04:11:57;95319.25;;;24.41;49.14
22257;BME280;11297;42.686;23.374;2022-07-23T04:14:24;95328.31;;;24.19;49.72
22257;BME280;11297;42.686;23.374;2022-07-23T04:16:50;95327.25;;;24.48;48.44
22257;BME280;11297;42.686;23.374;2022-07-23T04:19:16;95325.34;;;24.45;48.55
22257;BME280;11297;42.686;23.374;2022-07-23T04:21:41;95326.09;;;24.46;48.46
22257;BME280;11297;42.686;23.374;2022-07-23T04:24:07;95324.22;;;24.46;48.63
22257;BME280;11297;42.686;23.374;2022-07-23T04:26:33;95331.44;;;24.49;48.64
22257;BME280;11297;42.686;23.374;2022-07-23T04:28:58;95333.34;;;24.62;47.92
22257;BME280;11297;42.686;23.374;2022-07-23T04:31:23;95334.84;;;24.60;47.67
22257;BME280;11297;42.686;23.374;2022-07-23T04:33:49;95320.03;;;24.45;48.13
22257;BME280;11297;42.686;23.374;2022-07-23T04:36:14;95342.34;;;24.23;48.92
22257;BME280;11297;42.686;23.374;2022-07-23T04:38:39;95328.25;;;23.95;49.36
22257;BME280;11297;42.686;23.374;2022-07-23T04:41:05;95330.19;;;24.19;48.96
22257;BME280;11297;42.686;23.374;2022-07-23T04:43:30;95329.38;;;23.94;49.82
22257;BME280;11297;42.686;23.374;2022-07-23T04:45:56;95338.53;;;24.10;50.03
22257;BME280;11297;42.686;23.374;2022-07-23T04:48:21;95334.81;;;24.43;48.70
22257;BME280;11297;42.686;23.374;2022-07-23T04:50:47;95331.81;;;24.68;48.57
22257;BME280;11297;42.686;23.374;2022-07-23T04:53:12;95342.06;;;24.91;48.06
22257;BME280;11297;42.686;23.374;2022-07-23T04:55:37;95347.41;;;25.01;47.27
22257;BME280;11297;42.686;23.374;2022-07-23T04:58:03;95350.03;;;24.91;47.67
22257;BME280;11297;42.686;23.374;2022-07-23T05:00:28;95350.03;;;24.87;48.26
22257;BME280;11297;42.686;23.374;2022-07-23T05:02:54;95348.53;;;25.17;47.05
22257;BME280;11297;42.686;23.374;2022-07-23T05:05:19;95344.72;;;25.15;47.58
22257;BME280;11297;42.686;23.374;2022-07-23T05:07:44;95351.88;;;25.35;47.48
22257;BME280;11297;42.686;23.374;2022-07-23T05:10:10;95347.25;;;25.70;46.32
22257;BME280;11297;42.686;23.374;2022-07-23T05:12:35;95341.09;;;25.91;45.92
22257;BME280;11297;42.686;23.374;2022-07-23T05:15:01;95346.66;;;26.17;44.79
22257;BME280;11297;42.686;23.374;2022-07-23T05:17:26;95343.97;;;26.24;44.96
22257;BME280;11297;42.686;23.374;2022-07-23T05:19:51;95342.78;;;26.32;45.04
22257;BME280;11297;42.686;23.374;2022-07-23T05:22:17;95348.03;;;26.49;44.95
22257;BME280;11297;42.686;23.374;2022-07-23T05:24:42;95347.06;;;26.76;43.38
22257;BME280;11297;42.686;23.374;2022-07-23T05:27:08;95344.44;;;26.73;43.71
22257;BME280;11297;42.686;23.374;2022-07-23T05:29:34;95350.81;;;26.82;43.37
22257;BME280;11297;42.686;23.374;2022-07-23T05:31:59;95338.56;;;26.88;43.71
22257;BME280;11297;42.686;23.374;2022-07-23T05:34:24;95345.88;;;26.84;43.97
22257;BME280;11297;42.686;23.374;2022-07-23T05:36:50;95341.72;;;26.80;43.55
22257;BME280;11297;42.686;23.374;2022-07-23T05:39:15;95347.81;;;26.80;44.42
22257;BME280;11297;42.686;23.374;2022-07-23T05:41:41;95348.44;;;26.98;43.43
22257;BME280;11297;42.686;23.374;2022-07-23T05:44:06;95352.38;;;27.27;43.08
22257;BME280;11297;42.686;23.374;2022-07-23T05:46:32;95346.53;;;27.39;42.75
22257;BME280;11297;42.686;23.374;2022-07-23T05:48:57;95344.63;;;27.39;43.11
22257;BME280;11297;42.686;23.374;2022-07-23T05:51:23;95350.94;;;27.59;42.54
22257;BME280;11297;42.686;23.374;2022-07-23T05:53:50;95354.22;;;27.73;41.94
22257;BME280;11297;42.686;23.374;2022-07-23T05:56:16;95342.34;;;27.74;41.94
22257;BME280;11297;42.686;23.374;2022-07-23T05:58:41;95344.75;;;27.65;42.78
22257;BME280;11297;42.686;23.374;2022-07-23T06:01:07;95350.84;;;27.99;41.61
22257;BME280;11297;42.686;23.374;2022-07-23T06:03:32;95349.31;;;28.28;41.43
22257;BME280;11297;42.686;23.374;2022-07-23T06:05:58;95345.44;;;28.32;41.49
22257;BME280;11297;42.686;23.374;2022-07-23T06:08:23;95343.56;;;28.29;40.53
22257;BME280;11297;42.686;23.374;2022-07-23T06:10:48;95348.91;;;28.33;40.41
22257;BME280;11297;42.686;23.374;2022-07-23T06:13:14;95335.91;;;28.57;40.63
22257;BME280;11297;42.686;23.374;2022-07-23T06:15:39;95340.81;;;28.62;40.65
22257;BME280;11297;42.686;23.374;2022-07-23T06:18:05;95332.13;;;28.81;39.92
22257;BME280;11297;42.686;23.374;2022-07-23T06:20:30;95338.44;;;28.94;40.06
22257;BME280;11297;42.686;23.374;2022-07-23T06:22:55;95341.03;;;29.20;40.15
22257;BME280;11297;42.686;23.374;2022-07-23T06:25:21;95341.44;;;29.42;39.46
22257;BME280;11297;42.686;23.374;2022-07-23T06:27:47;95335.56;;;29.69;37.81
22257;BME280;11297;42.686;23.374;2022-07-23T06:30:13;95339.28;;;29.56;39.32
22257;BME280;11297;42.686;23.374;2022-07-23T06:32:41;95333.34;;;29.64;38.31
22257;BME280;11297;42.686;23.374;2022-07-23T06:35:07;95335.41;;;29.76;38.57
22257;BME280;11297;42.686;23.374;2022-07-23T06:37:32;95334.75;;;30.11;37.96
22257;BME280;11297;42.686;23.374;2022-07-23T06:39:58;95333.34;;;30.22;37.35
22257;BME280;11297;42.686;23.374;2022-07-23T06:42:23;95328.78;;;30.39;37.56
22257;BME280;11297;42.686;23.374;2022-07-23T06:44:49;95327.72;;;30.52;36.86
22257;BME280;11297;42.686;23.374;2022-07-23T06:47:14;95325.53;;;30.47;36.93
22257;BME280;11297;42.686;23.374;2022-07-23T06:49:39;95321.78;;;30.60;35.78
22257;BME280;11297;42.686;23.374;2022-07-23T06:52:06;95317.47;;;30.63;36.80
22257;BME280;11297;42.686;23.374;2022-07-23T06:54:32;95323.97;;;30.65;36.86
22257;BME280;11297;42.686;23.374;2022-07-23T06:56:57;95318.44;;;30.88;35.47
22257;BME280;11297;42.686;23.374;2022-07-23T06:59:23;95313.50;;;31.02;35.76
22257;BME280;11297;42.686;23.374;2022-07-23T07:01:48;95316.81;;;31.22;35.60
22257;BME280;11297;42.686;23.374;2022-07-23T07:04:13;95326.84;;;31.50;35.53
22257;BME280;11297;42.686;23.374;2022-07-23T07:06:39;95321.66;;;31.71;34.27
22257;BME280;11297;42.686;23.374;2022-07-23T07:09:04;95321.44;;;31.66;33.56
22257;BME280;11297;42.686;23.374;2022-07-23T07:11:30;95312.56;;;31.81;33.06
22257;BME280;11297;42.686;23.374;2022-07-23T07:13:55;95310.72;;;31.78;33.20
22257;BME280;11297;42.686;23.374;2022-07-23T07:16:21;95303.50;;;31.75;33.03
22257;BME280;11297;42.686;23.374;2022-07-23T07:18:46;95303.84;;;31.49;34.23
22257;BME280;11297;42.686;23.374;2022-07-23T07:21:12;95308.94;;;31.59;35.12
22257;BME280;11297;42.686;23.374;2022-07-23T07:23:37;95303.25;;;31.70;34.85
22257;BME280;11297;42.686;23.374;2022-07-23T07:26:03;95311.44;;;31.94;33.44
22257;BME280;11297;42.686;23.374;2022-07-23T07:28:28;95297.25;;;31.94;33.36
22257;BME280;11297;42.686;23.374;2022-07-23T07:30:53;95299.50;;;32.08;33.51
22257;BME280;11297;42.686;23.374;2022-07-23T07:33:19;95290.81;;;32.16;32.25
22257;BME280;11297;42.686;23.374;2022-07-23T07:35:46;95295.00;;;32.30;33.14
22257;BME280;11297;42.686;23.374;2022-07-23T07:38:11;95284.69;;;32.28;32.67
22257;BME280;11297;42.686;23.374;2022-07-23T07:40:37;95284.78;;;32.12;33.35
22257;BME280;11297;42.686;23.374;2022-07-23T07:43:02;95288.22;;;32.25;33.34
22257;BME280;11297;42.686;23.374;2022-07-23T07:45:29;95290.91;;;32.37;32.96
22257;BME280;11297;42.686;23.374;2022-07-23T07:47:54;95286.28;;;32.26;33.30
22257;BME280;11297;42.686;23.374;2022-07-23T07:50:21;95293.28;;;32.23;33.29
22257;BME280;11297;42.686;23.374;2022-07-23T07:52:46;95290.59;;;32.36;32.90
22257;BME280;11297;42.686;23.374;2022-07-23T07:55:12;95289.22;;;32.43;33.61
22257;BME280;11297;42.686;23.374;2022-07-23T07:57:38;95280.91;;;32.63;33.00
22257;BME280;11297;42.686;23.374;2022-07-23T08:00:05;95277.16;;;32.73;32.55
22257;BME280;11297;42.686;23.374;2022-07-23T08:02:49;95266.22;;;32.88;32.39
22257;BME280;11297;42.686;23.374;2022-07-23T08:05:22;95279.34;;;32.99;32.60
22257;BME280;11297;42.686;23.374;2022-07-23T08:07:47;95257.06;;;32.98;31.62
22257;BME280;11297;42.686;23.374;2022-07-23T08:10:13;95275.50;;;33.21;32.18
22257;BME280;11297;42.686;23.374;2022-07-23T08:12:44;95270.03;;;33.25;32.52
22257;BME280;11297;42.686;23.374;2022-07-23T08:15:11;95270.28;;;33.39;31.56
22257;BME280;11297;42.686;23.374;2022-07-23T08:17:37;95269.81;;;33.53;31.66
22257;BME280;11297;42.686;23.374;2022-07-23T08:20:04;95275.38;;;33.58;30.76
22257;BME280;11297;42.686;23.374;2022-07-23T08:22:56;95278.53;;;33.78;30.45
22257;BME280;11297;42.686;23.374;2022-07-23T08:25:28;95266.81;;;33.72;30.68
22257;BME280;11297;42.686;23.374;2022-07-23T08:27:55;95266.34;;;33.52;30.42
22257;BME280;11297;42.686;23.374;2022-07-23T08:30:21;95261.41;;;33.72;29.80
22257;BME280;11297;42.686;23.374;2022-07-23T08:35:28;95264.66;;;33.88;30.29
22257;BME280;11297;42.686;23.374;2022-07-23T08:37:55;95262.25;;;33.90;30.34
22257;BME280;11297;42.686;23.374;2022-07-23T08:40:21;95260.88;;;34.07;30.35
22257;BME280;11297;42.686;23.374;2022-07-23T08:42:49;95266.31;;;34.16;30.87
22257;BME280;11297;42.686;23.374;2022-07-23T08:45:16;95263.50;;;34.20;30.75
22257;BME280;11297;42.686;23.374;2022-07-23T08:47:43;95267.00;;;34.38;29.87
22257;BME280;11297;42.686;23.374;2022-07-23T08:50:10;95255.47;;;34.37;29.11
22257;BME280;11297;42.686;23.374;2022-07-23T08:52:36;95256.13;;;34.59;29.75
22257;BME280;11297;42.686;23.374;2022-07-23T08:55:03;95251.03;;;34.52;29.88
22257;BME280;11297;42.686;23.374;2022-07-23T08:57:28;95249.25;;;34.58;29.04
22257;BME280;11297;42.686;23.374;2022-07-23T08:59:53;95248.94;;;34.56;29.06
22257;BME280;11297;42.686;23.374;2022-07-23T09:02:19;95248.81;;;34.60;28.79
22257;BME280;11297;42.686;23.374;2022-07-23T09:04:44;95245.06;;;34.66;28.88
22257;BME280;11297;42.686;23.374;2022-07-23T09:07:10;95252.53;;;34.62;28.20
22257;BME280;11297;42.686;23.374;2022-07-23T09:09:35;95246.09;;;34.60;29.02
22257;BME280;11297;42.686;23.374;2022-07-23T09:14:43;95236.75;;;35.00;28.14
22257;BME280;11297;42.686;23.374;2022-07-23T09:17:14;95239.75;;;35.11;27.70
22257;BME280;11297;42.686;23.374;2022-07-23T09:19:41;95232.53;;;35.08;28.70
22257;BME280;11297;42.686;23.374;2022-07-23T09:22:23;95243.19;;;34.93;28.47
22257;BME280;11297;42.686;23.374;2022-07-23T09:25:10;95233.53;;;34.83;27.78
22257;BME280;11297;42.686;23.374;2022-07-23T09:30:21;95236.13;;;35.23;28.33
22257;BME280;11297;42.686;23.374;2022-07-23T09:35:51;95227.28;;;35.49;27.97
22257;BME280;11297;42.686;23.374;2022-07-23T09:38:18;95227.13;;;35.61;27.92
22257;BME280;11297;42.686;23.374;2022-07-23T09:40:44;95225.91;;;35.62;27.93
22257;BME280;11297;42.686;23.374;2022-07-23T09:43:11;95217.59;;;35.92;27.03
22257;BME280;11297;42.686;23.374;2022-07-23T09:45:36;95211.59;;;35.88;26.79
22257;BME280;11297;42.686;23.374;2022-07-23T09:48:15;95209.03;;;35.94;27.21
22257;BME280;11297;42.686;23.374;2022-07-23T09:50:41;95211.94;;;36.14;27.72
22257;BME280;11297;42.686;23.374;2022-07-23T09:53:08;95204.03;;;36.33;26.67
22257;BME280;11297;42.686;23.374;2022-07-23T09:55:35;95204.31;;;36.44;26.17
22257;BME280;11297;42.686;23.374;2022-07-23T09:58:05;95201.50;;;36.30;25.88
22257;BME280;11297;42.686;23.374;2022-07-23T10:00:40;95204.50;;;36.32;24.82
22257;BME280;11297;42.686;23.374;2022-07-23T10:03:06;95191.56;;;36.36;25.09
22257;BME280;11297;42.686;23.374;2022-07-23T10:05:33;95185.16;;;36.48;25.28
22257;BME280;11297;42.686;23.374;2022-07-23T10:08:01;95190.59;;;36.48;25.55
22257;BME280;11297;42.686;23.374;2022-07-23T10:10:28;95187.31;;;36.67;25.58
22257;BME280;11297;42.686;23.374;2022-07-23T10:12:56;95186.69;;;36.72;24.91
22257;BME280;11297;42.686;23.374;2022-07-23T10:15:28;95190.84;;;36.82;24.02
22257;BME280;11297;42.686;23.374;2022-07-23T10:17:54;95179.31;;;36.73;23.94
22257;BME280;11297;42.686;23.374;2022-07-23T10:20:19;95181.56;;;36.74;24.07
22257;BME280;11297;42.686;23.374;2022-07-23T10:23:34;95175.25;;;36.68;24.18
22257;BME280;11297;42.686;23.374;2022-07-23T10:26:19;95168.91;;;36.71;23.84
22257;BME280;11297;42.686;23.374;2022-07-23T10:36:47;95162.41;;;36.78;23.43
22257;BME280;11297;42.686;23.374;2022-07-23T10:39:22;95158.03;;;36.80;23.16
22257;BME280;11297;42.686;23.374;2022-07-23T10:41:49;95165.00;;;36.72;22.60
22257;BME280;11297;42.686;23.374;2022-07-23T10:44:22;95159.25;;;36.79;24.86
22257;BME280;11297;42.686;23.374;2022-07-23T10:47:03;95163.56;;;36.62;23.98
22257;BME280;11297;42.686;23.374;2022-07-23T10:49:33;95149.25;;;36.62;23.65
22257;BME280;11297;42.686;23.374;2022-07-23T10:57:07;95134.78;;;36.65;22.07
22257;BME280;11297;42.686;23.374;2022-07-23T11:02:43;95131.56;;;36.52;22.45
22257;BME280;11297;42.686;23.374;2022-07-23T11:05:15;95129.25;;;36.59;23.28
22257;BME280;11297;42.686;23.374;2022-07-23T11:10:33;95124.25;;;36.67;23.70
22257;BME280;11297;42.686;23.374;2022-07-23T11:24:08;95107.47;;;36.31;23.13
22257;BME280;11297;42.686;23.374;2022-07-23T11:31:53;95100.56;;;36.30;23.12
22257;BME280;11297;42.686;23.374;2022-07-23T11:36:57;95098.34;;;36.19;21.60
22257;BME280;11297;42.686;23.374;2022-07-23T11:39:25;95097.22;;;36.34;20.93
22257;BME280;11297;42.686;23.374;2022-07-23T11:41:55;95089.19;;;36.17;21.64
22257;BME280;11297;42.686;23.374;2022-07-23T11:44:39;95084.09;;;35.86;20.96
22257;BME280;11297;42.686;23.374;2022-07-23T11:47:11;95088.28;;;35.87;21.03
22257;BME280;11297;42.686;23.374;2022-07-23T11:49:52;95088.28;;;35.87;21.50
22257;BME280;11297;42.686;23.374;2022-07-23T11:52:17;95078.09;;;35.83;21.38
22257;BME280;11297;42.686;23.374;2022-07-23T11:54:51;95079.91;;;35.85;21.82
22257;BME280;11297;42.686;23.374;2022-07-23T11:57:19;95081.00;;;36.02;21.99
22257;BME280;11297;42.686;23.374;2022-07-23T11:59:47;95079.34;;;36.05;21.54
22257;BME280;11297;42.686;23.374;2022-07-23T12:02:14;95080.59;;;35.95;20.52
22257;BME280;11297;42.686;23.374;2022-07-23T12:04:44;95081.56;;;36.06;21.36
22257;BME280;11297;42.686;23.374;2022-07-23T12:09:48;95069.81;;;35.86;21.73
22257;BME280;11297;42.686;23.374;2022-07-23T12:12:13;95062.50;;;36.01;21.37
22257;BME280;11297;42.686;23.374;2022-07-23T12:14:53;95065.00;;;36.13;21.68
22257;BME280;11297;42.686;23.374;2022-07-23T12:17:19;95061.06;;;36.14;21.85
22257;BME280;11297;42.686;23.374;2022-07-23T12:19:47;95056.56;;;36.11;19.92
22257;BME280;11297;42.686;23.374;2022-07-23T12:22:13;95053.25;;;36.16;19.93
22257;BME280;11297;42.686;23.374;2022-07-23T12:24:59;95061.31;;;36.25;19.56
22257;BME280;11297;42.686;23.374;2022-07-23T12:27:26;95051.00;;;36.15;20.36
22257;BME280;11297;42.686;23.374;2022-07-23T12:29:52;95050.31;;;36.29;20.21
22257;BME280;11297;42.686;23.374;2022-07-23T12:32:28;95055.72;;;36.05;21.74
22257;BME280;11297;42.686;23.374;2022-07-23T12:35:04;95049.69;;;36.10;19.92
22257;BME280;11297;42.686;23.374;2022-07-23T12:37:50;95051.16;;;36.11;20.79
22257;BME280;11297;42.686;23.374;2022-07-23T12:43:23;95041.78;;;35.98;21.39
22257;BME280;11297;42.686;23.374;2022-07-23T12:53:24;95030.09;;;36.15;18.90
22257;BME280;11297;42.686;23.374;2022-07-23T12:55:57;95024.66;;;36.15;20.07
22257;BME280;11297;42.686;23.374;2022-07-23T12:58:23;95031.66;;;36.31;19.46
22257;BME280;11297;42.686;23.374;2022-07-23T13:03:23;95026.56;;;36.00;18.80
22257;BME280;11297;42.686;23.374;2022-07-23T13:05:49;95015.63;;;36.18;19.11
22257;BME280;11297;42.686;23.374;2022-07-23T13:08:14;95019.94;;;36.25;19.35
22257;BME280;11297;42.686;23.374;2022-07-23T13:10:40;95017.56;;;36.27;20.22
22257;BME280;11297;42.686;23.374;2022-07-23T13:13:11;95009.47;;;35.94;20.88
22257;BME280;11297;42.686;23.374;2022-07-23T13:15:37;95016.81;;;36.17;18.68
22257;BME280;11297;42.686;23.374;2022-07-23T13:18:02;95018.31;;;36.18;18.37
22257;BME280;11297;42.686;23.374;2022-07-23T13:20:28;95020.84;;;36.22;19.96
22257;BME280;11297;42.686;23.374;2022-07-23T13:22:53;95018.72;;;36.26;19.62
22257;BME280;11297;42.686;23.374;2022-07-23T13:25:19;95013.25;;;36.34;19.32
22257;BME280;11297;42.686;23.374;2022-07-23T13:27:44;95013.19;;;36.20;19.15
22257;BME280;11297;42.686;23.374;2022-07-23T13:30:10;95007.56;;;36.09;20.16
22257;BME280;11297;42.686;23.374;2022-07-23T13:32:36;95012.72;;;36.22;19.45
22257;BME280;11297;42.686;23.374;2022-07-23T13:35:03;95006.19;;;36.14;20.17
22257;BME280;11297;42.686;23.374;2022-07-23T13:37:29;95010.16;;;36.04;18.06
22257;BME280;11297;42.686;23.374;2022-07-23T13:39:54;95013.38;;;36.17;20.47
22257;BME280;11297;42.686;23.374;2022-07-23T13:42:20;95006.19;;;36.14;18.17
22257;BME280;11297;42.686;23.374;2022-07-23T13:44:45;94999.56;;;35.91;18.11
22257;BME280;11297;42.686;23.374;2022-07-23T13:47:10;95006.59;;;35.98;21.48
22257;BME280;11297;42.686;23.374;2022-07-23T13:49:36;95005.03;;;36.06;17.92
22257;BME280;11297;42.686;23.374;2022-07-23T13:52:03;95001.47;;;36.00;19.32
22257;BME280;11297;42.686;23.374;2022-07-23T13:54:28;95001.16;;;35.98;18.30